sensor_id;sensor_type;location;lat;lon;timestamp;P1;durP1;ratioP1;P2;durP2;ratioP2
10050;SDS011;5065;46.942;7.432;2023-04-03T00:00:13;0.40;;;0.40;;
10050;SDS011;5065;46.942;7.432;2023-04-03T00:02:41;0.40;;;0.40;;
10050;SDS011;5065;46.942;7.432;2023-04-03T00:05:08;0.33;;;0.33;;
10050;SDS011;5065;46.942;7.432;2023-04-03T00:07:35;0.57;;;0.57;;
10050;SDS011;5065;46.942;7.432;2023-04-03T00:10:03;0.53;;;0.50;;
10050;SDS011;5065;46.942;7.432;2023-04-03T00:12:31;0.40;;;0.40;;
10050;SDS011;5065;46.942;7.432;2023-04-03T00:14:59;0.70;;;0.50;;
10050;SDS011;5065;46.942;7.432;2023-04-03T00:17:29;4.17;;;0.47;;
10050;SDS011;5065;46.942;7.432;2023-04-03T00:19:56;0.87;;;0.40;;
10050;SDS011;5065;46.942;7.432;2023-04-03T00:22:24;0.73;;;0.60;;
10050;SDS011;5065;46.942;7.432;2023-04-03T00:24:51;0.60;;;0.60;;
10050;SDS011;5065;46.942;7.432;2023-04-03T00:27:19;0.60;;;0.60;;
10050;SDS011;5065;46.942;7.432;2023-04-03T00:29:46;0.30;;;0.30;;
10050;SDS011;5065;46.942;7.432;2023-04-03T00:32:14;0.30;;;0.30;;
10050;SDS011;5065;46.942;7.432;2023-04-03T00:34:42;1.60;;;0.47;;
10050;SDS011;5065;46.942;7.432;2023-04-03T00:37:09;1.17;;;0.60;;
10050;SDS011;5065;46.942;7.432;2023-04-03T00:39:36;0.40;;;0.30;;
10050;SDS011;5065;46.942;7.432;2023-04-03T00:42:06;0.40;;;0.40;;
10050;SDS011;5065;46.942;7.432;2023-04-03T00:47:39;0.33;;;0.33;;
10050;SDS011;5065;46.942;7.432;2023-04-03T00:50:08;0.40;;;0.40;;
10050;SDS011;5065;46.942;7.432;2023-04-03T00:52:35;0.50;;;0.50;;
10050;SDS011;5065;46.942;7.432;2023-04-03T00:55:06;0.53;;;0.53;;
10050;SDS011;5065;46.942;7.432;2023-04-03T00:57:35;0.40;;;0.40;;
10050;SDS011;5065;46.942;7.432;2023-04-03T01:00:08;0.87;;;0.60;;
10050;SDS011;5065;46.942;7.432;2023-04-03T01:02:37;0.40;;;0.40;;
10050;SDS011;5065;46.942;7.432;2023-04-03T01:05:06;0.57;;;0.50;;
10050;SDS011;5065;46.942;7.432;2023-04-03T01:07:34;0.60;;;0.40;;
10050;SDS011;5065;46.942;7.432;2023-04-03T01:10:04;0.80;;;0.50;;
10050;SDS011;5065;46.942;7.432;2023-04-03T01:12:35;0.83;;;0.50;;
10050;SDS011;5065;46.942;7.432;2023-04-03T01:15:05;0.50;;;0.50;;
10050;SDS011;5065;46.942;7.432;2023-04-03T01:17:34;0.53;;;0.53;;
10050;SDS011;5065;46.942;7.432;2023-04-03T01:23:16;3.63;;;0.70;;
10050;SDS011;5065;46.942;7.432;2023-04-03T01:25:52;0.90;;;0.60;;
10050;SDS011;5065;46.942;7.432;2023-04-03T01:28:21;1.33;;;0.77;;
10050;SDS011;5065;46.942;7.432;2023-04-03T01:30:50;0.77;;;0.77;;
10050;SDS011;5065;46.942;7.432;2023-04-03T01:33:27;0.93;;;0.87;;
10050;SDS011;5065;46.942;7.432;2023-04-03T01:35:54;2.73;;;0.90;;
10050;SDS011;5065;46.942;7.432;2023-04-03T01:38:21;0.80;;;0.80;;
10050;SDS011;5065;46.942;7.432;2023-04-03T01:40:48;0.97;;;0.90;;
10050;SDS011;5065;46.942;7.432;2023-04-03T01:43:19;1.20;;;0.90;;
10050;SDS011;5065;46.942;7.432;2023-04-03T01:45:46;1.30;;;1.00;;
10050;SDS011;5065;46.942;7.432;2023-04-03T01:48:14;1.10;;;1.00;;
10050;SDS011;5065;46.942;7.432;2023-04-03T01:50:43;2.43;;;0.90;;
10050;SDS011;5065;46.942;7.432;2023-04-03T01:53:10;1.43;;;1.03;;
10050;SDS011;5065;46.942;7.432;2023-04-03T01:55:37;0.77;;;0.77;;
10050;SDS011;5065;46.942;7.432;2023-04-03T01:58:04;0.87;;;0.87;;
10050;SDS011;5065;46.942;7.432;2023-04-03T02:00:31;0.80;;;0.80;;
10050;SDS011;5065;46.942;7.432;2023-04-03T02:02:58;1.37;;;1.00;;
10050;SDS011;5065;46.942;7.432;2023-04-03T02:05:26;0.90;;;0.90;;
10050;SDS011;5065;46.942;7.432;2023-04-03T02:07:54;1.37;;;1.27;;
10050;SDS011;5065;46.942;7.432;2023-04-03T02:10:21;1.03;;;1.03;;
10050;SDS011;5065;46.942;7.432;2023-04-03T02:12:49;1.07;;;1.07;;
10050;SDS011;5065;46.942;7.432;2023-04-03T02:15:16;1.13;;;1.00;;
10050;SDS011;5065;46.942;7.432;2023-04-03T02:17:43;1.13;;;1.03;;
10050;SDS011;5065;46.942;7.432;2023-04-03T02:20:11;1.17;;;1.07;;
10050;SDS011;5065;46.942;7.432;2023-04-03T02:22:38;0.90;;;0.90;;
10050;SDS011;5065;46.942;7.432;2023-04-03T02:25:09;1.17;;;1.00;;
10050;SDS011;5065;46.942;7.432;2023-04-03T02:27:37;1.10;;;1.10;;
10050;SDS011;5065;46.942;7.432;2023-04-03T02:30:05;0.97;;;0.97;;
10050;SDS011;5065;46.942;7.432;2023-04-03T02:32:37;0.80;;;0.80;;
10050;SDS011;5065;46.942;7.432;2023-04-03T02:35:05;0.80;;;0.80;;
10050;SDS011;5065;46.942;7.432;2023-04-03T02:37:33;0.90;;;0.90;;
10050;SDS011;5065;46.942;7.432;2023-04-03T02:40:00;1.03;;;0.93;;
10050;SDS011;5065;46.942;7.432;2023-04-03T02:42:29;2.60;;;0.90;;
10050;SDS011;5065;46.942;7.432;2023-04-03T02:44:56;1.20;;;1.10;;
10050;SDS011;5065;46.942;7.432;2023-04-03T02:47:25;1.10;;;1.10;;
10050;SDS011;5065;46.942;7.432;2023-04-03T02:49:53;1.83;;;1.37;;
10050;SDS011;5065;46.942;7.432;2023-04-03T02:52:20;1.37;;;1.27;;
10050;SDS011;5065;46.942;7.432;2023-04-03T02:54:47;1.50;;;1.40;;
10050;SDS011;5065;46.942;7.432;2023-04-03T02:57:15;1.80;;;1.57;;
10050;SDS011;5065;46.942;7.432;2023-04-03T02:59:43;1.87;;;1.77;;
10050;SDS011;5065;46.942;7.432;2023-04-03T03:02:10;2.10;;;1.70;;
10050;SDS011;5065;46.942;7.432;2023-04-03T03:04:37;2.20;;;1.50;;
10050;SDS011;5065;46.942;7.432;2023-04-03T03:07:05;1.87;;;1.77;;
10050;SDS011;5065;46.942;7.432;2023-04-03T03:09:32;4.47;;;1.80;;
10050;SDS011;5065;46.942;7.432;2023-04-03T03:12:01;5.00;;;1.83;;
10050;SDS011;5065;46.942;7.432;2023-04-03T03:14:28;2.30;;;2.10;;
10050;SDS011;5065;46.942;7.432;2023-04-03T03:16:57;2.47;;;2.27;;
10050;SDS011;5065;46.942;7.432;2023-04-03T03:19:24;5.13;;;3.47;;
10050;SDS011;5065;46.942;7.432;2023-04-03T03:21:51;4.33;;;3.93;;
10050;SDS011;5065;46.942;7.432;2023-04-03T03:24:18;4.57;;;4.17;;
10050;SDS011;5065;46.942;7.432;2023-04-03T03:26:45;5.57;;;4.70;;
10050;SDS011;5065;46.942;7.432;2023-04-03T03:29:12;6.07;;;5.37;;
10050;SDS011;5065;46.942;7.432;2023-04-03T03:31:40;6.13;;;4.93;;
10050;SDS011;5065;46.942;7.432;2023-04-03T03:34:08;5.97;;;5.37;;
10050;SDS011;5065;46.942;7.432;2023-04-03T03:36:35;8.30;;;6.00;;
10050;SDS011;5065;46.942;7.432;2023-04-03T03:39:02;8.10;;;6.23;;
10050;SDS011;5065;46.942;7.432;2023-04-03T03:41:30;6.73;;;5.83;;
10050;SDS011;5065;46.942;7.432;2023-04-03T03:43:57;6.27;;;5.63;;
10050;SDS011;5065;46.942;7.432;2023-04-03T03:46:24;6.37;;;5.77;;
10050;SDS011;5065;46.942;7.432;2023-04-03T03:48:51;7.27;;;6.53;;
10050;SDS011;5065;46.942;7.432;2023-04-03T03:51:20;6.87;;;6.20;;
10050;SDS011;5065;46.942;7.432;2023-04-03T03:53:47;15.53;;;13.07;;
10050;SDS011;5065;46.942;7.432;2023-04-03T03:56:14;9.13;;;6.50;;
10050;SDS011;5065;46.942;7.432;2023-04-03T03:58:42;7.03;;;6.33;;
10050;SDS011;5065;46.942;7.432;2023-04-03T04:01:10;7.17;;;6.47;;
10050;SDS011;5065;46.942;7.432;2023-04-03T04:03:37;8.10;;;6.30;;
10050;SDS011;5065;46.942;7.432;2023-04-03T04:06:04;7.43;;;6.07;;
10050;SDS011;5065;46.942;7.432;2023-04-03T04:08:33;7.17;;;6.17;;
10050;SDS011;5065;46.942;7.432;2023-04-03T04:11:00;7.07;;;6.37;;
10050;SDS011;5065;46.942;7.432;2023-04-03T04:13:29;6.53;;;5.70;;
10050;SDS011;5065;46.942;7.432;2023-04-03T04:15:56;7.23;;;6.27;;
10050;SDS011;5065;46.942;7.432;2023-04-03T04:18:24;7.30;;;5.90;;
10050;SDS011;5065;46.942;7.432;2023-04-03T04:20:52;6.47;;;5.87;;
10050;SDS011;5065;46.942;7.432;2023-04-03T04:23:19;8.87;;;5.80;;
10050;SDS011;5065;46.942;7.432;2023-04-03T04:25:48;6.30;;;5.50;;
10050;SDS011;5065;46.942;7.432;2023-04-03T04:28:15;6.30;;;5.70;;
10050;SDS011;5065;46.942;7.432;2023-04-03T04:30:46;7.00;;;5.97;;
10050;SDS011;5065;46.942;7.432;2023-04-03T04:33:14;6.67;;;5.97;;
10050;SDS011;5065;46.942;7.432;2023-04-03T04:35:42;6.60;;;5.63;;
10050;SDS011;5065;46.942;7.432;2023-04-03T04:38:09;5.93;;;5.33;;
10050;SDS011;5065;46.942;7.432;2023-04-03T04:40:36;7.07;;;6.00;;
10050;SDS011;5065;46.942;7.432;2023-04-03T04:43:05;7.60;;;6.80;;
10050;SDS011;5065;46.942;7.432;2023-04-03T04:45:32;7.00;;;6.30;;
10050;SDS011;5065;46.942;7.432;2023-04-03T04:47:59;7.53;;;6.40;;
10050;SDS011;5065;46.942;7.432;2023-04-03T04:50:27;6.70;;;6.00;;
10050;SDS011;5065;46.942;7.432;2023-04-03T04:52:56;8.77;;;6.47;;
10050;SDS011;5065;46.942;7.432;2023-04-03T04:55:23;8.70;;;6.47;;
10050;SDS011;5065;46.942;7.432;2023-04-03T04:57:50;7.33;;;6.40;;
10050;SDS011;5065;46.942;7.432;2023-04-03T05:00:19;9.67;;;6.60;;
10050;SDS011;5065;46.942;7.432;2023-04-03T05:02:47;6.97;;;6.27;;
10050;SDS011;5065;46.942;7.432;2023-04-03T05:05:14;7.93;;;6.93;;
10050;SDS011;5065;46.942;7.432;2023-04-03T05:07:41;8.80;;;6.30;;
10050;SDS011;5065;46.942;7.432;2023-04-03T05:10:09;8.27;;;6.70;;
10050;SDS011;5065;46.942;7.432;2023-04-03T05:12:36;7.30;;;6.40;;
10050;SDS011;5065;46.942;7.432;2023-04-03T05:15:03;7.40;;;6.43;;
10050;SDS011;5065;46.942;7.432;2023-04-03T05:17:33;9.63;;;6.73;;
10050;SDS011;5065;46.942;7.432;2023-04-03T05:20:00;7.73;;;6.67;;
10050;SDS011;5065;46.942;7.432;2023-04-03T05:22:29;10.87;;;6.63;;
10050;SDS011;5065;46.942;7.432;2023-04-03T05:24:56;7.73;;;6.47;;
10050;SDS011;5065;46.942;7.432;2023-04-03T05:27:24;8.30;;;7.40;;
10050;SDS011;5065;46.942;7.432;2023-04-03T05:29:53;9.97;;;7.30;;
10050;SDS011;5065;46.942;7.432;2023-04-03T05:32:23;10.23;;;7.43;;
10050;SDS011;5065;46.942;7.432;2023-04-03T05:34:55;8.33;;;7.50;;
10050;SDS011;5065;46.942;7.432;2023-04-03T05:37:23;10.70;;;7.60;;
10050;SDS011;5065;46.942;7.432;2023-04-03T05:39:50;10.07;;;9.00;;
10050;SDS011;5065;46.942;7.432;2023-04-03T05:42:17;8.63;;;7.27;;
10050;SDS011;5065;46.942;7.432;2023-04-03T05:44:45;8.00;;;7.20;;
10050;SDS011;5065;46.942;7.432;2023-04-03T05:47:12;8.20;;;7.30;;
10050;SDS011;5065;46.942;7.432;2023-04-03T05:49:39;7.80;;;6.27;;
10050;SDS011;5065;46.942;7.432;2023-04-03T05:52:10;7.87;;;6.83;;
10050;SDS011;5065;46.942;7.432;2023-04-03T05:54:44;8.80;;;6.97;;
10050;SDS011;5065;46.942;7.432;2023-04-03T05:57:13;7.77;;;6.80;;
10050;SDS011;5065;46.942;7.432;2023-04-03T05:59:41;8.43;;;7.10;;
10050;SDS011;5065;46.942;7.432;2023-04-03T06:02:09;8.30;;;6.50;;
10050;SDS011;5065;46.942;7.432;2023-04-03T06:04:37;8.03;;;6.47;;
10050;SDS011;5065;46.942;7.432;2023-04-03T06:07:04;11.53;;;6.40;;
10050;SDS011;5065;46.942;7.432;2023-04-03T06:09:34;15.27;;;9.33;;
10050;SDS011;5065;46.942;7.432;2023-04-03T06:12:01;9.37;;;7.27;;
10050;SDS011;5065;46.942;7.432;2023-04-03T06:14:28;7.33;;;6.63;;
10050;SDS011;5065;46.942;7.432;2023-04-03T06:16:55;8.63;;;6.67;;
10050;SDS011;5065;46.942;7.432;2023-04-03T06:19:23;8.43;;;6.40;;
10050;SDS011;5065;46.942;7.432;2023-04-03T06:21:51;7.37;;;6.57;;
10050;SDS011;5065;46.942;7.432;2023-04-03T06:24:18;11.37;;;6.77;;
10050;SDS011;5065;46.942;7.432;2023-04-03T06:26:48;10.67;;;6.40;;
10050;SDS011;5065;46.942;7.432;2023-04-03T06:29:16;13.43;;;6.53;;
10050;SDS011;5065;46.942;7.432;2023-04-03T06:31:44;6.23;;;5.63;;
10050;SDS011;5065;46.942;7.432;2023-04-03T06:34:11;8.27;;;6.53;;
10050;SDS011;5065;46.942;7.432;2023-04-03T06:36:39;7.33;;;5.77;;
10050;SDS011;5065;46.942;7.432;2023-04-03T06:39:07;6.20;;;5.60;;
10050;SDS011;5065;46.942;7.432;2023-04-03T06:41:37;6.30;;;4.97;;
10050;SDS011;5065;46.942;7.432;2023-04-03T06:44:06;4.97;;;4.47;;
10050;SDS011;5065;46.942;7.432;2023-04-03T06:46:36;5.17;;;4.67;;
10050;SDS011;5065;46.942;7.432;2023-04-03T06:49:04;5.23;;;4.73;;
10050;SDS011;5065;46.942;7.432;2023-04-03T06:51:32;5.40;;;4.87;;
10050;SDS011;5065;46.942;7.432;2023-04-03T06:54:01;5.17;;;4.67;;
10050;SDS011;5065;46.942;7.432;2023-04-03T06:56:32;5.03;;;4.63;;
10050;SDS011;5065;46.942;7.432;2023-04-03T06:58:59;5.70;;;5.10;;
10050;SDS011;5065;46.942;7.432;2023-04-03T07:01:29;5.37;;;4.87;;
10050;SDS011;5065;46.942;7.432;2023-04-03T07:03:56;5.73;;;5.20;;
10050;SDS011;5065;46.942;7.432;2023-04-03T07:06:24;5.97;;;5.40;;
10050;SDS011;5065;46.942;7.432;2023-04-03T07:08:52;5.83;;;5.20;;
10050;SDS011;5065;46.942;7.432;2023-04-03T07:11:20;6.10;;;4.60;;
10050;SDS011;5065;46.942;7.432;2023-04-03T07:13:47;5.30;;;4.80;;
10050;SDS011;5065;46.942;7.432;2023-04-03T07:16:14;5.70;;;5.20;;
10050;SDS011;5065;46.942;7.432;2023-04-03T07:18:43;5.67;;;5.10;;
10050;SDS011;5065;46.942;7.432;2023-04-03T07:21:11;5.67;;;4.93;;
10050;SDS011;5065;46.942;7.432;2023-04-03T07:23:38;5.27;;;4.77;;
10050;SDS011;5065;46.942;7.432;2023-04-03T07:26:06;7.90;;;5.30;;
10050;SDS011;5065;46.942;7.432;2023-04-03T07:28:34;5.60;;;5.10;;
10050;SDS011;5065;46.942;7.432;2023-04-03T07:31:02;5.93;;;5.27;;
10050;SDS011;5065;46.942;7.432;2023-04-03T07:33:33;7.10;;;6.17;;
10050;SDS011;5065;46.942;7.432;2023-04-03T07:36:03;5.80;;;5.20;;
10050;SDS011;5065;46.942;7.432;2023-04-03T07:38:32;6.40;;;5.50;;
10050;SDS011;5065;46.942;7.432;2023-04-03T07:40:59;6.20;;;5.47;;
10050;SDS011;5065;46.942;7.432;2023-04-03T07:43:27;5.60;;;5.10;;
10050;SDS011;5065;46.942;7.432;2023-04-03T07:45:54;5.93;;;5.13;;
10050;SDS011;5065;46.942;7.432;2023-04-03T07:48:21;7.90;;;5.80;;
10050;SDS011;5065;46.942;7.432;2023-04-03T07:50:50;6.57;;;5.87;;
10050;SDS011;5065;46.942;7.432;2023-04-03T07:53:19;6.43;;;5.70;;
10050;SDS011;5065;46.942;7.432;2023-04-03T07:55:46;6.93;;;5.77;;
10050;SDS011;5065;46.942;7.432;2023-04-03T07:58:17;6.83;;;5.87;;
10050;SDS011;5065;46.942;7.432;2023-04-03T08:00:44;6.23;;;5.63;;
10050;SDS011;5065;46.942;7.432;2023-04-03T08:03:12;6.33;;;5.23;;
10050;SDS011;5065;46.942;7.432;2023-04-03T08:05:41;7.20;;;6.10;;
10050;SDS011;5065;46.942;7.432;2023-04-03T08:08:10;7.90;;;5.40;;
10050;SDS011;5065;46.942;7.432;2023-04-03T08:10:40;6.13;;;5.53;;
10050;SDS011;5065;46.942;7.432;2023-04-03T08:13:07;8.43;;;5.50;;
10050;SDS011;5065;46.942;7.432;2023-04-03T08:15:35;6.70;;;5.73;;
10050;SDS011;5065;46.942;7.432;2023-04-03T08:18:02;6.43;;;5.30;;
10050;SDS011;5065;46.942;7.432;2023-04-03T08:20:30;5.57;;;4.93;;
10050;SDS011;5065;46.942;7.432;2023-04-03T08:22:58;11.13;;;4.80;;
10050;SDS011;5065;46.942;7.432;2023-04-03T08:25:25;6.30;;;5.70;;
10050;SDS011;5065;46.942;7.432;2023-04-03T08:27:55;6.20;;;5.27;;
10050;SDS011;5065;46.942;7.432;2023-04-03T08:30:23;5.57;;;4.97;;
10050;SDS011;5065;46.942;7.432;2023-04-03T08:32:50;6.43;;;4.93;;
10050;SDS011;5065;46.942;7.432;2023-04-03T08:35:17;5.10;;;4.43;;
10050;SDS011;5065;46.942;7.432;2023-04-03T08:37:45;6.73;;;4.77;;
10050;SDS011;5065;46.942;7.432;2023-04-03T08:40:13;5.27;;;4.77;;
10050;SDS011;5065;46.942;7.432;2023-04-03T08:42:45;5.43;;;4.87;;
10050;SDS011;5065;46.942;7.432;2023-04-03T08:45:33;4.37;;;3.97;;
10050;SDS011;5065;46.942;7.432;2023-04-03T08:48:11;6.17;;;4.03;;
10050;SDS011;5065;46.942;7.432;2023-04-03T08:50:41;6.43;;;4.17;;
10050;SDS011;5065;46.942;7.432;2023-04-03T08:53:11;4.40;;;4.00;;
10050;SDS011;5065;46.942;7.432;2023-04-03T08:55:42;5.97;;;3.93;;
10050;SDS011;5065;46.942;7.432;2023-04-03T08:58:14;6.13;;;3.27;;
10050;SDS011;5065;46.942;7.432;2023-04-03T09:00:44;4.67;;;4.07;;
10050;SDS011;5065;46.942;7.432;2023-04-03T09:03:14;5.07;;;3.87;;
10050;SDS011;5065;46.942;7.432;2023-04-03T09:05:45;4.17;;;3.77;;
10050;SDS011;5065;46.942;7.432;2023-04-03T09:08:23;4.43;;;3.80;;
10050;SDS011;5065;46.942;7.432;2023-04-03T09:10:58;4.73;;;4.07;;
10050;SDS011;5065;46.942;7.432;2023-04-03T09:13:34;4.20;;;3.80;;
10050;SDS011;5065;46.942;7.432;2023-04-03T09:16:10;4.10;;;3.70;;
10050;SDS011;5065;46.942;7.432;2023-04-03T09:18:45;4.80;;;3.90;;
10050;SDS011;5065;46.942;7.432;2023-04-03T09:21:20;4.80;;;3.93;;
10050;SDS011;5065;46.942;7.432;2023-04-03T09:23:51;5.23;;;4.57;;
10050;SDS011;5065;46.942;7.432;2023-04-03T09:26:23;4.70;;;3.83;;
10050;SDS011;5065;46.942;7.432;2023-04-03T09:28:54;4.87;;;4.33;;
10050;SDS011;5065;46.942;7.432;2023-04-03T09:31:26;5.33;;;4.10;;
10050;SDS011;5065;46.942;7.432;2023-04-03T09:33:56;4.30;;;3.90;;
10050;SDS011;5065;46.942;7.432;2023-04-03T09:36:43;4.23;;;3.83;;
10050;SDS011;5065;46.942;7.432;2023-04-03T09:39:12;3.23;;;3.00;;
10050;SDS011;5065;46.942;7.432;2023-04-03T09:41:42;5.33;;;4.03;;
10050;SDS011;5065;46.942;7.432;2023-04-03T09:44:22;4.13;;;3.57;;
10050;SDS011;5065;46.942;7.432;2023-04-03T09:46:51;3.77;;;3.40;;
10050;SDS011;5065;46.942;7.432;2023-04-03T09:49:18;4.60;;;4.07;;
10050;SDS011;5065;46.942;7.432;2023-04-03T09:51:46;4.33;;;3.93;;
10050;SDS011;5065;46.942;7.432;2023-04-03T09:54:30;4.60;;;3.70;;
10050;SDS011;5065;46.942;7.432;2023-04-03T09:57:04;4.00;;;3.57;;
10050;SDS011;5065;46.942;7.432;2023-04-03T09:59:36;3.23;;;2.90;;
10050;SDS011;5065;46.942;7.432;2023-04-03T10:02:18;3.87;;;2.97;;
10050;SDS011;5065;46.942;7.432;2023-04-03T10:04:55;4.37;;;3.20;;
10050;SDS011;5065;46.942;7.432;2023-04-03T10:07:30;6.30;;;4.10;;
10050;SDS011;5065;46.942;7.432;2023-04-03T10:09:59;4.57;;;3.77;;
10050;SDS011;5065;46.942;7.432;2023-04-03T10:12:44;3.00;;;2.70;;
10050;SDS011;5065;46.942;7.432;2023-04-03T10:15:13;2.87;;;2.63;;
10050;SDS011;5065;46.942;7.432;2023-04-03T10:17:47;3.63;;;2.60;;
10050;SDS011;5065;46.942;7.432;2023-04-03T10:20:26;3.40;;;2.70;;
10050;SDS011;5065;46.942;7.432;2023-04-03T10:23:05;3.00;;;2.70;;
10050;SDS011;5065;46.942;7.432;2023-04-03T10:25:43;3.37;;;3.07;;
10050;SDS011;5065;46.942;7.432;2023-04-03T10:28:19;5.10;;;3.43;;
10050;SDS011;5065;46.942;7.432;2023-04-03T10:30:54;4.27;;;3.77;;
10050;SDS011;5065;46.942;7.432;2023-04-03T10:33:39;4.27;;;3.87;;
10050;SDS011;5065;46.942;7.432;2023-04-03T10:36:19;5.17;;;3.47;;
10050;SDS011;5065;46.942;7.432;2023-04-03T10:38:57;4.53;;;3.20;;
10050;SDS011;5065;46.942;7.432;2023-04-03T10:41:34;5.30;;;4.00;;
10050;SDS011;5065;46.942;7.432;2023-04-03T10:44:13;3.47;;;3.03;;
10050;SDS011;5065;46.942;7.432;2023-04-03T10:46:46;4.17;;;3.40;;
10050;SDS011;5065;46.942;7.432;2023-04-03T10:49:19;4.33;;;3.90;;
10050;SDS011;5065;46.942;7.432;2023-04-03T10:52:02;4.57;;;3.97;;
10050;SDS011;5065;46.942;7.432;2023-04-03T10:54:37;4.00;;;3.70;;
10050;SDS011;5065;46.942;7.432;2023-04-03T10:57:08;4.83;;;3.70;;
10050;SDS011;5065;46.942;7.432;2023-04-03T10:59:37;4.17;;;3.50;;
10050;SDS011;5065;46.942;7.432;2023-04-03T11:02:11;3.67;;;3.37;;
10050;SDS011;5065;46.942;7.432;2023-04-03T11:04:46;4.10;;;3.70;;
10050;SDS011;5065;46.942;7.432;2023-04-03T11:07:18;3.50;;;3.20;;
10050;SDS011;5065;46.942;7.432;2023-04-03T11:09:48;3.67;;;3.30;;
10050;SDS011;5065;46.942;7.432;2023-04-03T11:12:19;3.40;;;3.10;;
10050;SDS011;5065;46.942;7.432;2023-04-03T11:14:51;4.23;;;3.83;;
10050;SDS011;5065;46.942;7.432;2023-04-03T11:17:26;3.67;;;3.30;;
10050;SDS011;5065;46.942;7.432;2023-04-03T11:19:59;5.07;;;3.30;;
10050;SDS011;5065;46.942;7.432;2023-04-03T11:22:34;4.33;;;3.40;;
10050;SDS011;5065;46.942;7.432;2023-04-03T11:25:06;8.30;;;4.40;;
10050;SDS011;5065;46.942;7.432;2023-04-03T11:27:46;4.60;;;3.80;;
10050;SDS011;5065;46.942;7.432;2023-04-03T11:30:18;4.57;;;4.00;;
10050;SDS011;5065;46.942;7.432;2023-04-03T11:33:07;4.50;;;3.93;;
10050;SDS011;5065;46.942;7.432;2023-04-03T11:35:45;5.27;;;4.03;;
10050;SDS011;5065;46.942;7.432;2023-04-03T11:38:17;5.70;;;4.67;;
10050;SDS011;5065;46.942;7.432;2023-04-03T11:40:49;4.20;;;3.80;;
10050;SDS011;5065;46.942;7.432;2023-04-03T11:43:20;4.00;;;3.60;;
10050;SDS011;5065;46.942;7.432;2023-04-03T11:45:54;7.67;;;4.27;;
10050;SDS011;5065;46.942;7.432;2023-04-03T11:48:47;4.30;;;3.90;;
10050;SDS011;5065;46.942;7.432;2023-04-03T12:12:29;3.93;;;3.30;;
10050;SDS011;5065;46.942;7.432;2023-04-03T12:15:18;5.37;;;3.60;;
10050;SDS011;5065;46.942;7.432;2023-04-03T12:17:48;3.80;;;3.40;;
10050;SDS011;5065;46.942;7.432;2023-04-03T12:23:28;3.87;;;3.47;;
10050;SDS011;5065;46.942;7.432;2023-04-03T12:28:47;5.47;;;3.47;;
10050;SDS011;5065;46.942;7.432;2023-04-03T12:31:18;5.07;;;4.10;;
10050;SDS011;5065;46.942;7.432;2023-04-03T12:34:01;6.50;;;3.80;;
10050;SDS011;5065;46.942;7.432;2023-04-03T12:36:41;4.13;;;3.73;;
10050;SDS011;5065;46.942;7.432;2023-04-03T12:39:24;4.27;;;3.50;;
10050;SDS011;5065;46.942;7.432;2023-04-03T12:42:09;3.87;;;3.47;;
10050;SDS011;5065;46.942;7.432;2023-04-03T12:44:49;4.23;;;3.43;;
10050;SDS011;5065;46.942;7.432;2023-04-03T12:47:24;4.87;;;3.20;;
10050;SDS011;5065;46.942;7.432;2023-04-03T12:49:54;5.53;;;3.70;;
10050;SDS011;5065;46.942;7.432;2023-04-03T12:52:29;4.20;;;3.30;;
10050;SDS011;5065;46.942;7.432;2023-04-03T12:55:00;4.10;;;3.50;;
10050;SDS011;5065;46.942;7.432;2023-04-03T12:57:31;3.40;;;3.10;;
10050;SDS011;5065;46.942;7.432;2023-04-03T12:59:58;3.17;;;2.53;;
10050;SDS011;5065;46.942;7.432;2023-04-03T13:02:26;4.50;;;3.10;;
10050;SDS011;5065;46.942;7.432;2023-04-03T13:05:02;4.37;;;3.50;;
10050;SDS011;5065;46.942;7.432;2023-04-03T13:07:33;3.43;;;3.13;;
10050;SDS011;5065;46.942;7.432;2023-04-03T13:10:13;4.20;;;3.37;;
10050;SDS011;5065;46.942;7.432;2023-04-03T13:12:46;5.00;;;3.80;;
10050;SDS011;5065;46.942;7.432;2023-04-03T13:15:17;4.17;;;3.33;;
10050;SDS011;5065;46.942;7.432;2023-04-03T13:17:47;4.17;;;3.03;;
10050;SDS011;5065;46.942;7.432;2023-04-03T13:20:17;3.53;;;3.03;;
10050;SDS011;5065;46.942;7.432;2023-04-03T13:22:50;4.30;;;3.07;;
10050;SDS011;5065;46.942;7.432;2023-04-03T13:25:23;3.40;;;3.10;;
10050;SDS011;5065;46.942;7.432;2023-04-03T13:27:53;3.50;;;3.20;;
10050;SDS011;5065;46.942;7.432;2023-04-03T13:30:24;4.30;;;3.47;;
10050;SDS011;5065;46.942;7.432;2023-04-03T13:32:54;3.07;;;2.77;;
10050;SDS011;5065;46.942;7.432;2023-04-03T13:35:31;4.37;;;2.90;;
10050;SDS011;5065;46.942;7.432;2023-04-03T13:38:01;3.30;;;3.00;;
10050;SDS011;5065;46.942;7.432;2023-04-03T13:40:31;3.40;;;3.10;;
10050;SDS011;5065;46.942;7.432;2023-04-03T13:43:01;3.67;;;3.00;;
10050;SDS011;5065;46.942;7.432;2023-04-03T13:45:32;3.93;;;2.70;;
10050;SDS011;5065;46.942;7.432;2023-04-03T13:48:08;3.57;;;3.20;;
10050;SDS011;5065;46.942;7.432;2023-04-03T13:50:57;4.17;;;2.90;;
10050;SDS011;5065;46.942;7.432;2023-04-03T13:53:28;3.37;;;3.07;;
10050;SDS011;5065;46.942;7.432;2023-04-03T13:56:00;5.53;;;3.17;;
10050;SDS011;5065;46.942;7.432;2023-04-03T13:58:34;3.30;;;3.00;;
10050;SDS011;5065;46.942;7.432;2023-04-03T14:01:07;3.87;;;2.90;;
10050;SDS011;5065;46.942;7.432;2023-04-03T14:03:40;3.10;;;2.80;;
10050;SDS011;5065;46.942;7.432;2023-04-03T14:06:10;3.77;;;3.20;;
10050;SDS011;5065;46.942;7.432;2023-04-03T14:08:39;3.63;;;3.33;;
10050;SDS011;5065;46.942;7.432;2023-04-03T14:11:09;3.40;;;3.10;;
10050;SDS011;5065;46.942;7.432;2023-04-03T14:13:40;3.20;;;2.90;;
10050;SDS011;5065;46.942;7.432;2023-04-03T14:16:12;2.77;;;2.53;;
10050;SDS011;5065;46.942;7.432;2023-04-03T14:18:42;4.37;;;3.57;;
10050;SDS011;5065;46.942;7.432;2023-04-03T14:21:10;5.87;;;3.40;;
10050;SDS011;5065;46.942;7.432;2023-04-03T14:23:38;3.60;;;3.20;;
10050;SDS011;5065;46.942;7.432;2023-04-03T14:26:08;4.07;;;3.23;;
10050;SDS011;5065;46.942;7.432;2023-04-03T14:28:38;3.20;;;2.87;;
10050;SDS011;5065;46.942;7.432;2023-04-03T14:31:07;3.43;;;2.67;;
10050;SDS011;5065;46.942;7.432;2023-04-03T14:33:36;3.17;;;2.87;;
10050;SDS011;5065;46.942;7.432;2023-04-03T14:36:20;3.43;;;3.07;;
10050;SDS011;5065;46.942;7.432;2023-04-03T14:38:50;2.80;;;2.53;;
10050;SDS011;5065;46.942;7.432;2023-04-03T14:41:18;3.57;;;3.03;;
10050;SDS011;5065;46.942;7.432;2023-04-03T14:43:49;3.20;;;2.90;;
10050;SDS011;5065;46.942;7.432;2023-04-03T14:46:18;3.17;;;2.87;;
10050;SDS011;5065;46.942;7.432;2023-04-03T14:48:50;3.90;;;3.00;;
10050;SDS011;5065;46.942;7.432;2023-04-03T14:51:20;3.20;;;2.90;;
10050;SDS011;5065;46.942;7.432;2023-04-03T14:53:47;3.30;;;3.00;;
10050;SDS011;5065;46.942;7.432;2023-04-03T14:56:16;4.43;;;3.17;;
10050;SDS011;5065;46.942;7.432;2023-04-03T14:58:48;3.70;;;3.30;;
10050;SDS011;5065;46.942;7.432;2023-04-03T15:01:17;3.37;;;3.07;;
10050;SDS011;5065;46.942;7.432;2023-04-03T15:03:45;3.43;;;2.93;;
10050;SDS011;5065;46.942;7.432;2023-04-03T15:06:12;4.40;;;3.57;;
10050;SDS011;5065;46.942;7.432;2023-04-03T15:08:41;4.60;;;3.33;;
10050;SDS011;5065;46.942;7.432;2023-04-03T15:11:09;3.30;;;3.00;;
10050;SDS011;5065;46.942;7.432;2023-04-03T15:13:37;3.37;;;3.03;;
10050;SDS011;5065;46.942;7.432;2023-04-03T15:16:09;2.80;;;2.60;;
10050;SDS011;5065;46.942;7.432;2023-04-03T15:18:41;3.27;;;2.97;;
10050;SDS011;5065;46.942;7.432;2023-04-03T15:21:10;5.93;;;2.30;;
10050;SDS011;5065;46.942;7.432;2023-04-03T15:23:37;3.20;;;2.90;;
10050;SDS011;5065;46.942;7.432;2023-04-03T15:26:05;4.53;;;2.80;;
10050;SDS011;5065;46.942;7.432;2023-04-03T15:28:32;3.43;;;3.13;;
10050;SDS011;5065;46.942;7.432;2023-04-03T15:31:02;4.83;;;2.90;;
10050;SDS011;5065;46.942;7.432;2023-04-03T15:33:31;3.27;;;2.97;;
10050;SDS011;5065;46.942;7.432;2023-04-03T15:35:59;3.20;;;2.67;;
10050;SDS011;5065;46.942;7.432;2023-04-03T15:38:27;3.60;;;3.30;;
10050;SDS011;5065;46.942;7.432;2023-04-03T15:40:54;5.83;;;3.30;;
10050;SDS011;5065;46.942;7.432;2023-04-03T15:43:22;5.17;;;3.43;;
10050;SDS011;5065;46.942;7.432;2023-04-03T15:45:49;4.77;;;3.50;;
10050;SDS011;5065;46.942;7.432;2023-04-03T15:48:17;5.57;;;3.40;;
10050;SDS011;5065;46.942;7.432;2023-04-03T15:50:46;3.10;;;2.80;;